• Join FlightAware (Why Join?)
  • Login
  • US Flag 
01:27AM EDT


 

Airport Tracker/Info


-or-


 

Live Flight TrackerFlight Track Log ✈ ASQ5740 ✈ 21-Nov-2013 ✈ KIAD - KGSP

Flight Track Log - Related Links

Times and Time Zones

All times are in EST time to prevent confusion due to time zone crossing. See the ASQ5740 flight status page for this flight to view local times or setup timezone preferences in your user account.

Time Position Orientation Groundspeed Altitude Reporting Facility
EST Latitude Longitude Course Direction KTS MPH feet Rate Location/Type
01:08PM 38.9167 -77.5167 226° Southwest 199 229 2,300  Level Potomac TRACON
01:09PM 38.8500 -77.5167 180° South 235 270 5,000 2,580 Climbing Potomac TRACON
01:10PM 38.7279 -77.7376 224° Southwest  Level Estimated
01:11PM 38.6545 -77.8297 238° Southwest  Level Estimated
01:11PM 38.7414 -77.5319 186° South 265 305 9,100  Level Washington Center
01:11PM 38.6619 -77.5406 185° South 277 319 10,900 1,920 Climbing Washington Center
01:12PM 38.5811 -77.9217 238° Southwest  Level Estimated
01:13PM 38.5077 -78.0135 226° Southwest  Level Estimated
01:13PM 38.5761 -77.5647 192° South 299 344 13,000  Level Washington Center
01:14PM 38.5083 -77.6372 220° Southwest 299 344 15,000 1,980 Climbing Washington Center
01:15PM 38.4381 -77.7122 220° Southwest 320 368 17,000 1,740 Climbing Washington Center
01:15PM 38.3658 -77.7844 218° Southwest 333 383 18,500 1,620 Climbing Washington Center
01:16PM 38.2914 -77.8642 220° Southwest 333 383 20,200 1,320 Climbing Washington Center
01:18PM 38.2192 -77.9414 220° Southwest 333 383 21,200 960 Climbing Washington Center
01:19PM 38.1403 -78.0206 218° Southwest 345 397 22,200 960 Climbing Washington Center
01:20PM 38.0636 -78.1025 220° Southwest 352 405 23,200 900 Climbing Washington Center
01:21PM 38.0039 -78.1692 221° Southwest 358 412 24,100 1,020 Climbing Washington Center
01:21PM 37.9306 -78.2797 230° Southwest 348 400 25,300 1,080 Climbing Washington Center
01:22PM 37.8636 -78.3747 228° Southwest 358 412 26,300 900 Climbing Washington Center
01:24PM 37.7989 -78.4669 228° Southwest 358 412 27,200 660 Climbing Washington Center
01:25PM 37.7319 -78.5642 229° Southwest 358 412 27,700 540 Climbing Washington Center
01:26PM 37.6711 -78.6536 229° Southwest 363 418 28,300 720 Climbing Washington Center
01:26PM 37.6039 -78.7506 229° Southwest 369 425 29,200 840 Climbing Washington Center
01:27PM 37.5389 -78.8475 230° Southwest 375 432 30,000 360 Climbing Washington Center
01:29PM 37.4694 -78.9439 228° Southwest 375 432 30,000  Level Washington Center
01:30PM 37.4019 -79.0456 230° Southwest 375 432 30,000  Level Washington Center
01:31PM 37.3278 -79.1517 229° Southwest 375 432 30,000  Level Washington Center
01:32PM 37.2603 -79.2503 229° Southwest 375 432 30,000  Level Washington Center
01:32PM 37.1925 -79.3489 229° Southwest 375 432 30,000  Level Washington Center
01:34PM 37.1247 -79.4444 228° Southwest 375 432 30,000  Level Washington Center
01:35PM 37.0592 -79.5403 229° Southwest 375 432 30,000  Level Washington Center
01:35PM 36.9931 -79.6383 230° Southwest 375 432 30,000  Level Washington Center
01:36PM 36.9339 -79.7233 229° Southwest 375 432 30,000 -300 Level Washington Center
01:38PM 36.8681 -79.8161 228° Southwest 375 432 29,400 -600 Descending Washington Center
01:40PM 36.6967 -80.0594 229° Southwest 344 396 28,000 -420 Descending Atlanta Center
01:41PM 36.6228 -80.1639 229° Southwest 378 435 28,000  Level Atlanta Center
01:42PM 36.5528 -80.2578 227° Southwest 378 435 28,000 -480 Level Atlanta Center
01:43PM 36.4542 -80.3089 203° Southwest 365 420 27,100 -900 Descending Atlanta Center
01:44PM 36.3428 -80.3478 196° South 391 450 26,200 -960 Descending Atlanta Center
01:45PM 36.2458 -80.3831 196° South 405 466 25,200 -1,020 Descending Atlanta Center
01:46PM 36.1406 -80.4186 195° South 405 466 24,200 -600 Descending Atlanta Center
01:47PM 36.0392 -80.4514 195° South 392 451 24,000 -480 Descending Atlanta Center
01:48PM 35.9442 -80.4864 197° South 375 432 23,300 -1,560 Descending Atlanta Center
01:49PM 35.8431 -80.5217 196° South 357 411 20,900 -1,680 Descending Atlanta Center
01:50PM 35.7519 -80.5486 193° South 346 398 20,000 -480 Descending Atlanta Center
01:51PM 35.7006 -80.6428 236° Southwest 312 359 20,000  Level Atlanta Center
01:52PM 35.6569 -80.7264 237° Southwest 312 359 20,000 -240 Level Atlanta Center
01:52PM 35.6414 -80.7706 247° West 312 359 19,700 -1,020 Descending Atlanta Center
01:53PM 35.6175 -80.8097 233° Southwest 312 359 19,000 -1,020 Descending Atlanta Center
01:54PM 35.5717 -80.8983 238° Southwest 312 359 18,100 -1,140 Descending Atlanta Center
01:54PM 35.5681 -80.9164 256° West 305 351 17,900 -1,620 Descending Atlanta Center
01:55PM 35.5258 -80.9817 232° Southwest 312 359 16,500 -1,620 Descending Atlanta Center
01:55PM 35.5242 -80.9997 264° West 297 342 16,300 -1,500 Descending Atlanta Center
01:56PM 35.4861 -81.0647 234° Southwest 300 345 15,000 -1,620 Descending Atlanta Center
01:56PM 35.4822 -81.0803 253° West 282 325 14,700 -1,920 Descending Atlanta Center
01:57PM 35.4381 -81.1533 233° Southwest 295 339 13,100 -1,620 Descending Atlanta Center
01:57PM 35.4364 -81.1661 261° West 274 315 13,100  Level Atlanta Center
01:58PM 35.4003 -81.2311 236° Southwest 291 335 13,100  Level Atlanta Center
01:58PM 35.3944 -81.2464 245° Southwest 287 330 13,100 -540 Level Atlanta Center
01:59PM 35.3583 -81.3164 238° Southwest 291 335 12,600 -660 Descending Atlanta Center
01:59PM 35.3483 -81.3347 236° Southwest 288 331 12,400 -840 Descending Atlanta Center
02:00PM 35.3164 -81.3942 237° Southwest 291 335 11,800 -900 Descending Atlanta Center
02:00PM 35.3083 -81.4072 233° Southwest 276 318 11,600 -840 Descending Atlanta Center
02:01PM 35.2742 -81.4744 238° Southwest 285 328 11,000 -840 Descending Atlanta Center
02:02PM 35.2258 -81.5572 234° Southwest 285 328 10,100 -900 Descending Atlanta Center
02:04PM 35.1464 -81.6906 239° Southwest  Level FlightAware Approximate
02:11PM 34.8833 -82.2167 231° Southwest  Level FlightAware Approximate
02:12PM 34.8957 -82.2189 231° Southwest  Level Estimated
02:13PM 34.8957 -82.2189 231° Southwest  Level Estimated
02:14PM 34.8957 -82.2189 231° Southwest  Level Estimated
02:15PM 34.8957 -82.2189 231° Southwest  Level Estimated
02:16PM 34.8957 -82.2189 231° Southwest  Level Estimated
02:17PM 34.8957 -82.2189 231° Southwest  Level Estimated
02:18PM 34.8957 -82.2189 231° Southwest  Level Estimated
02:19PM 34.8957 -82.2189 231° Southwest  Level Estimated